sensor_id;sensor_type;location;lat;lon;timestamp;P1;durP1;ratioP1;P2;durP2;ratioP2
71558;SDS011;59382;43.852;25.952;2023-07-31T00:03:47;4.15;;;2.13;;
71558;SDS011;59382;43.852;25.952;2023-07-31T00:06:12;1.77;;;1.67;;
71558;SDS011;59382;43.852;25.952;2023-07-31T00:08:38;2.20;;;1.88;;
71558;SDS011;59382;43.852;25.952;2023-07-31T00:11:03;2.15;;;1.80;;
71558;SDS011;59382;43.852;25.952;2023-07-31T00:13:29;1.80;;;1.70;;
71558;SDS011;59382;43.852;25.952;2023-07-31T00:15:54;1.73;;;1.63;;
71558;SDS011;59382;43.852;25.952;2023-07-31T00:18:20;1.95;;;1.60;;
71558;SDS011;59382;43.852;25.952;2023-07-31T00:20:45;1.60;;;1.50;;
71558;SDS011;59382;43.852;25.952;2023-07-31T00:23:11;2.13;;;1.60;;
71558;SDS011;59382;43.852;25.952;2023-07-31T00:25:36;1.92;;;1.60;;
71558;SDS011;59382;43.852;25.952;2023-07-31T00:28:02;2.38;;;1.52;;
71558;SDS011;59382;43.852;25.952;2023-07-31T00:30:27;5.30;;;2.00;;
71558;SDS011;59382;43.852;25.952;2023-07-31T00:32:53;3.72;;;1.73;;
71558;SDS011;59382;43.852;25.952;2023-07-31T00:35:19;1.85;;;1.55;;
71558;SDS011;59382;43.852;25.952;2023-07-31T00:37:44;5.57;;;1.67;;
71558;SDS011;59382;43.852;25.952;2023-07-31T00:40:10;3.00;;;1.52;;
71558;SDS011;59382;43.852;25.952;2023-07-31T00:42:35;3.55;;;1.50;;
71558;SDS011;59382;43.852;25.952;2023-07-31T00:45:01;1.40;;;1.30;;
71558;SDS011;59382;43.852;25.952;2023-07-31T00:47:26;1.90;;;1.50;;
71558;SDS011;59382;43.852;25.952;2023-07-31T00:49:52;2.47;;;1.52;;
71558;SDS011;59382;43.852;25.952;2023-07-31T00:52:18;1.60;;;1.50;;
71558;SDS011;59382;43.852;25.952;2023-07-31T00:54:44;2.08;;;1.88;;
71558;SDS011;59382;43.852;25.952;2023-07-31T00:57:10;2.28;;;1.50;;
71558;SDS011;59382;43.852;25.952;2023-07-31T00:59:36;4.28;;;1.73;;
71558;SDS011;59382;43.852;25.952;2023-07-31T01:02:01;2.15;;;1.40;;
71558;SDS011;59382;43.852;25.952;2023-07-31T01:04:28;2.22;;;1.77;;
71558;SDS011;59382;43.852;25.952;2023-07-31T01:09:40;2.05;;;1.48;;
71558;SDS011;59382;43.852;25.952;2023-07-31T01:12:06;2.20;;;1.60;;
71558;SDS011;59382;43.852;25.952;2023-07-31T01:14:34;2.83;;;1.40;;
71558;SDS011;59382;43.852;25.952;2023-07-31T01:17:00;1.75;;;1.40;;
71558;SDS011;59382;43.852;25.952;2023-07-31T01:19:26;2.90;;;1.52;;
71558;SDS011;59382;43.852;25.952;2023-07-31T01:28:17;2.00;;;1.40;;
71558;SDS011;59382;43.852;25.952;2023-07-31T01:30:40;2.13;;;1.50;;
71558;SDS011;59382;43.852;25.952;2023-07-31T01:33:08;1.13;;;1.10;;
71558;SDS011;59382;43.852;25.952;2023-07-31T01:35:35;2.80;;;1.27;;
71558;SDS011;59382;43.852;25.952;2023-07-31T01:38:02;5.47;;;1.15;;
71558;SDS011;59382;43.852;25.952;2023-07-31T01:40:27;1.80;;;1.27;;
71558;SDS011;59382;43.852;25.952;2023-07-31T01:42:53;3.20;;;1.77;;
71558;SDS011;59382;43.852;25.952;2023-07-31T01:45:18;1.90;;;1.67;;
71558;SDS011;59382;43.852;25.952;2023-07-31T01:47:44;5.97;;;2.08;;
71558;SDS011;59382;43.852;25.952;2023-07-31T01:50:10;3.30;;;2.05;;
71558;SDS011;59382;43.852;25.952;2023-07-31T01:52:36;5.65;;;1.83;;
71558;SDS011;59382;43.852;25.952;2023-07-31T01:55:01;5.15;;;1.80;;
71558;SDS011;59382;43.852;25.952;2023-07-31T01:57:27;6.10;;;2.17;;
71558;SDS011;59382;43.852;25.952;2023-07-31T01:59:52;4.50;;;2.05;;
71558;SDS011;59382;43.852;25.952;2023-07-31T02:02:18;6.70;;;2.72;;
71558;SDS011;59382;43.852;25.952;2023-07-31T02:04:45;4.47;;;2.13;;
71558;SDS011;59382;43.852;25.952;2023-07-31T02:07:10;5.15;;;2.00;;
71558;SDS011;59382;43.852;25.952;2023-07-31T02:09:36;4.30;;;2.92;;
71558;SDS011;59382;43.852;25.952;2023-07-31T02:12:01;2.85;;;2.58;;
71558;SDS011;59382;43.852;25.952;2023-07-31T02:14:27;3.00;;;2.30;;
71558;SDS011;59382;43.852;25.952;2023-07-31T02:16:52;3.70;;;2.50;;
71558;SDS011;59382;43.852;25.952;2023-07-31T02:19:18;2.13;;;1.88;;
71558;SDS011;59382;43.852;25.952;2023-07-31T02:21:43;2.47;;;2.28;;
71558;SDS011;59382;43.852;25.952;2023-07-31T02:24:09;3.30;;;2.33;;
71558;SDS011;59382;43.852;25.952;2023-07-31T02:26:35;2.78;;;2.35;;
71558;SDS011;59382;43.852;25.952;2023-07-31T02:29:00;2.75;;;2.03;;
71558;SDS011;59382;43.852;25.952;2023-07-31T02:31:26;2.47;;;1.90;;
71558;SDS011;59382;43.852;25.952;2023-07-31T02:33:51;4.32;;;2.20;;
71558;SDS011;59382;43.852;25.952;2023-07-31T02:36:17;2.70;;;2.10;;
71558;SDS011;59382;43.852;25.952;2023-07-31T02:38:42;6.43;;;2.03;;
71558;SDS011;59382;43.852;25.952;2023-07-31T02:41:08;2.15;;;1.95;;
71558;SDS011;59382;43.852;25.952;2023-07-31T02:43:33;5.55;;;2.50;;
71558;SDS011;59382;43.852;25.952;2023-07-31T02:45:59;2.65;;;2.17;;
71558;SDS011;59382;43.852;25.952;2023-07-31T02:48:25;2.65;;;2.45;;
71558;SDS011;59382;43.852;25.952;2023-07-31T02:50:50;2.55;;;2.35;;
71558;SDS011;59382;43.852;25.952;2023-07-31T02:53:16;3.85;;;2.42;;
71558;SDS011;59382;43.852;25.952;2023-07-31T02:55:41;3.08;;;2.60;;
71558;SDS011;59382;43.852;25.952;2023-07-31T02:58:07;2.60;;;2.35;;
71558;SDS011;59382;43.852;25.952;2023-07-31T03:00:32;2.42;;;2.25;;
71558;SDS011;59382;43.852;25.952;2023-07-31T03:02:58;2.65;;;2.45;;
71558;SDS011;59382;43.852;25.952;2023-07-31T03:05:24;2.25;;;2.03;;
71558;SDS011;59382;43.852;25.952;2023-07-31T03:07:52;3.38;;;3.10;;
71558;SDS011;59382;43.852;25.952;2023-07-31T03:10:18;2.65;;;2.45;;
71558;SDS011;59382;43.852;25.952;2023-07-31T03:12:46;4.53;;;3.15;;
71558;SDS011;59382;43.852;25.952;2023-07-31T03:15:12;3.17;;;2.65;;
71558;SDS011;59382;43.852;25.952;2023-07-31T03:17:37;3.00;;;2.75;;
71558;SDS011;59382;43.852;25.952;2023-07-31T03:20:03;3.47;;;2.88;;
71558;SDS011;59382;43.852;25.952;2023-07-31T03:22:29;3.15;;;2.38;;
71558;SDS011;59382;43.852;25.952;2023-07-31T03:24:54;2.58;;;2.38;;
71558;SDS011;59382;43.852;25.952;2023-07-31T03:27:19;3.08;;;2.50;;
71558;SDS011;59382;43.852;25.952;2023-07-31T03:29:45;3.47;;;2.88;;
71558;SDS011;59382;43.852;25.952;2023-07-31T03:32:10;3.70;;;2.92;;
71558;SDS011;59382;43.852;25.952;2023-07-31T03:34:36;3.58;;;2.00;;
71558;SDS011;59382;43.852;25.952;2023-07-31T03:37:02;2.70;;;2.50;;
71558;SDS011;59382;43.852;25.952;2023-07-31T03:39:30;3.10;;;2.53;;
71558;SDS011;59382;43.852;25.952;2023-07-31T03:41:55;3.25;;;2.92;;
71558;SDS011;59382;43.852;25.952;2023-07-31T03:44:21;4.55;;;3.40;;
71558;SDS011;59382;43.852;25.952;2023-07-31T03:46:46;3.70;;;2.58;;
71558;SDS011;59382;43.852;25.952;2023-07-31T03:49:12;3.47;;;2.30;;
71558;SDS011;59382;43.852;25.952;2023-07-31T03:51:39;3.50;;;3.15;;
71558;SDS011;59382;43.852;25.952;2023-07-31T03:54:05;2.90;;;2.60;;
71558;SDS011;59382;43.852;25.952;2023-07-31T03:56:30;2.72;;;2.25;;
71558;SDS011;59382;43.852;25.952;2023-07-31T03:58:56;2.95;;;2.63;;
71558;SDS011;59382;43.852;25.952;2023-07-31T04:01:21;4.45;;;3.05;;
71558;SDS011;59382;43.852;25.952;2023-07-31T04:03:47;4.72;;;3.05;;
71558;SDS011;59382;43.852;25.952;2023-07-31T04:06:13;3.38;;;3.08;;
71558;SDS011;59382;43.852;25.952;2023-07-31T04:08:38;5.35;;;3.28;;
71558;SDS011;59382;43.852;25.952;2023-07-31T04:11:04;2.95;;;2.70;;
71558;SDS011;59382;43.852;25.952;2023-07-31T04:13:30;3.53;;;3.22;;
71558;SDS011;59382;43.852;25.952;2023-07-31T04:15:55;4.35;;;2.95;;
71558;SDS011;59382;43.852;25.952;2023-07-31T04:18:21;4.18;;;3.28;;
71558;SDS011;59382;43.852;25.952;2023-07-31T04:20:47;4.47;;;3.20;;
71558;SDS011;59382;43.852;25.952;2023-07-31T04:23:12;3.85;;;3.45;;
71558;SDS011;59382;43.852;25.952;2023-07-31T04:25:38;3.15;;;2.90;;
71558;SDS011;59382;43.852;25.952;2023-07-31T04:28:03;5.35;;;2.75;;
71558;SDS011;59382;43.852;25.952;2023-07-31T04:30:29;3.38;;;2.97;;
71558;SDS011;59382;43.852;25.952;2023-07-31T04:32:55;4.05;;;3.15;;
71558;SDS011;59382;43.852;25.952;2023-07-31T04:35:20;3.42;;;3.10;;
71558;SDS011;59382;43.852;25.952;2023-07-31T04:37:45;2.95;;;2.75;;
71558;SDS011;59382;43.852;25.952;2023-07-31T04:40:13;3.97;;;3.10;;
71558;SDS011;59382;43.852;25.952;2023-07-31T04:42:39;3.47;;;2.80;;
71558;SDS011;59382;43.852;25.952;2023-07-31T04:45:05;4.07;;;3.60;;
71558;SDS011;59382;43.852;25.952;2023-07-31T04:47:31;4.40;;;3.63;;
71558;SDS011;59382;43.852;25.952;2023-07-31T04:49:57;3.35;;;3.05;;
71558;SDS011;59382;43.852;25.952;2023-07-31T04:52:22;3.33;;;3.03;;
71558;SDS011;59382;43.852;25.952;2023-07-31T04:54:47;3.78;;;3.47;;
71558;SDS011;59382;43.852;25.952;2023-07-31T04:57:13;5.10;;;3.45;;
71558;SDS011;59382;43.852;25.952;2023-07-31T04:59:39;4.10;;;3.70;;
71558;SDS011;59382;43.852;25.952;2023-07-31T05:02:06;5.22;;;3.15;;
71558;SDS011;59382;43.852;25.952;2023-07-31T05:04:33;4.47;;;3.80;;
71558;SDS011;59382;43.852;25.952;2023-07-31T05:06:58;4.47;;;3.50;;
71558;SDS011;59382;43.852;25.952;2023-07-31T05:09:24;6.90;;;3.75;;
71558;SDS011;59382;43.852;25.952;2023-07-31T05:11:49;4.05;;;3.40;;
71558;SDS011;59382;43.852;25.952;2023-07-31T05:14:15;7.60;;;6.05;;
71558;SDS011;59382;43.852;25.952;2023-07-31T05:16:41;4.30;;;3.75;;
71558;SDS011;59382;43.852;25.952;2023-07-31T05:19:07;3.22;;;2.95;;
71558;SDS011;59382;43.852;25.952;2023-07-31T05:21:32;4.32;;;3.47;;
71558;SDS011;59382;43.852;25.952;2023-07-31T05:23:58;3.88;;;3.35;;
71558;SDS011;59382;43.852;25.952;2023-07-31T05:26:23;4.43;;;3.42;;
71558;SDS011;59382;43.852;25.952;2023-07-31T05:28:49;4.28;;;3.45;;
71558;SDS011;59382;43.852;25.952;2023-07-31T05:31:14;4.30;;;3.80;;
71558;SDS011;59382;43.852;25.952;2023-07-31T05:33:40;3.65;;;3.35;;
71558;SDS011;59382;43.852;25.952;2023-07-31T05:36:05;3.92;;;3.47;;
71558;SDS011;59382;43.852;25.952;2023-07-31T05:38:31;6.45;;;3.72;;
71558;SDS011;59382;43.852;25.952;2023-07-31T05:40:56;4.95;;;3.65;;
71558;SDS011;59382;43.852;25.952;2023-07-31T05:43:22;5.35;;;3.88;;
71558;SDS011;59382;43.852;25.952;2023-07-31T05:45:47;4.18;;;3.33;;
71558;SDS011;59382;43.852;25.952;2023-07-31T05:48:13;5.03;;;3.53;;
71558;SDS011;59382;43.852;25.952;2023-07-31T05:50:38;3.80;;;3.35;;
71558;SDS011;59382;43.852;25.952;2023-07-31T05:53:05;3.60;;;3.30;;
71558;SDS011;59382;43.852;25.952;2023-07-31T05:55:31;3.22;;;2.97;;
71558;SDS011;59382;43.852;25.952;2023-07-31T05:57:57;4.60;;;3.33;;
71558;SDS011;59382;43.852;25.952;2023-07-31T06:00:22;3.88;;;3.38;;
71558;SDS011;59382;43.852;25.952;2023-07-31T06:02:48;3.97;;;3.58;;
71558;SDS011;59382;43.852;25.952;2023-07-31T06:05:13;4.60;;;3.15;;
71558;SDS011;59382;43.852;25.952;2023-07-31T06:07:39;3.80;;;3.38;;
71558;SDS011;59382;43.852;25.952;2023-07-31T06:10:05;3.90;;;3.38;;
71558;SDS011;59382;43.852;25.952;2023-07-31T06:12:31;4.15;;;3.60;;
71558;SDS011;59382;43.852;25.952;2023-07-31T06:14:57;4.00;;;3.55;;
71558;SDS011;59382;43.852;25.952;2023-07-31T06:17:23;4.20;;;3.80;;
71558;SDS011;59382;43.852;25.952;2023-07-31T06:19:49;5.95;;;3.75;;
71558;SDS011;59382;43.852;25.952;2023-07-31T06:22:15;4.13;;;3.40;;
71558;SDS011;59382;43.852;25.952;2023-07-31T06:24:40;3.55;;;3.25;;
71558;SDS011;59382;43.852;25.952;2023-07-31T06:27:06;4.10;;;3.70;;
71558;SDS011;59382;43.852;25.952;2023-07-31T06:29:32;4.25;;;3.63;;
71558;SDS011;59382;43.852;25.952;2023-07-31T06:31:58;4.53;;;3.60;;
71558;SDS011;59382;43.852;25.952;2023-07-31T06:34:24;6.60;;;4.60;;
71558;SDS011;59382;43.852;25.952;2023-07-31T06:36:49;4.95;;;4.43;;
71558;SDS011;59382;43.852;25.952;2023-07-31T06:39:15;4.75;;;4.22;;
71558;SDS011;59382;43.852;25.952;2023-07-31T06:41:45;5.07;;;4.13;;
71558;SDS011;59382;43.852;25.952;2023-07-31T06:44:10;4.70;;;4.20;;
71558;SDS011;59382;43.852;25.952;2023-07-31T06:46:36;5.20;;;3.90;;
71558;SDS011;59382;43.852;25.952;2023-07-31T06:49:02;3.65;;;3.35;;
71558;SDS011;59382;43.852;25.952;2023-07-31T06:51:27;4.90;;;3.75;;
71558;SDS011;59382;43.852;25.952;2023-07-31T06:53:53;5.07;;;3.50;;
71558;SDS011;59382;43.852;25.952;2023-07-31T06:56:18;3.40;;;3.10;;
71558;SDS011;59382;43.852;25.952;2023-07-31T06:58:44;7.82;;;3.50;;
71558;SDS011;59382;43.852;25.952;2023-07-31T07:01:09;4.55;;;3.30;;
71558;SDS011;59382;43.852;25.952;2023-07-31T07:03:35;5.38;;;3.10;;
71558;SDS011;59382;43.852;25.952;2023-07-31T07:06:00;3.53;;;3.22;;
71558;SDS011;59382;43.852;25.952;2023-07-31T07:08:26;3.70;;;3.40;;
71558;SDS011;59382;43.852;25.952;2023-07-31T07:10:52;4.13;;;3.35;;
71558;SDS011;59382;43.852;25.952;2023-07-31T07:13:17;3.58;;;3.28;;
71558;SDS011;59382;43.852;25.952;2023-07-31T07:15:43;7.57;;;4.15;;
71558;SDS011;59382;43.852;25.952;2023-07-31T07:18:13;3.88;;;3.40;;
71558;SDS011;59382;43.852;25.952;2023-07-31T07:20:39;4.32;;;3.45;;
71558;SDS011;59382;43.852;25.952;2023-07-31T07:23:04;4.22;;;3.80;;
71558;SDS011;59382;43.852;25.952;2023-07-31T07:25:32;5.47;;;3.80;;
71558;SDS011;59382;43.852;25.952;2023-07-31T07:27:58;4.13;;;3.30;;
71558;SDS011;59382;43.852;25.952;2023-07-31T07:30:24;4.13;;;3.75;;
71558;SDS011;59382;43.852;25.952;2023-07-31T07:32:50;3.75;;;3.45;;
71558;SDS011;59382;43.852;25.952;2023-07-31T07:35:16;3.85;;;3.33;;
71558;SDS011;59382;43.852;25.952;2023-07-31T07:37:57;5.82;;;3.47;;
71558;SDS011;59382;43.852;25.952;2023-07-31T07:40:23;5.80;;;3.42;;
71558;SDS011;59382;43.852;25.952;2023-07-31T07:42:49;6.60;;;3.90;;
71558;SDS011;59382;43.852;25.952;2023-07-31T07:45:15;3.40;;;3.20;;
71558;SDS011;59382;43.852;25.952;2023-07-31T07:47:41;4.47;;;4.07;;
71558;SDS011;59382;43.852;25.952;2023-07-31T07:50:10;4.15;;;3.78;;
71558;SDS011;59382;43.852;25.952;2023-07-31T07:52:35;3.90;;;3.60;;
71558;SDS011;59382;43.852;25.952;2023-07-31T07:55:01;5.53;;;3.60;;
71558;SDS011;59382;43.852;25.952;2023-07-31T07:57:28;4.20;;;3.90;;
71558;SDS011;59382;43.852;25.952;2023-07-31T07:59:54;3.55;;;3.25;;
71558;SDS011;59382;43.852;25.952;2023-07-31T08:02:20;4.00;;;3.35;;
71558;SDS011;59382;43.852;25.952;2023-07-31T08:04:56;3.90;;;3.50;;
71558;SDS011;59382;43.852;25.952;2023-07-31T08:07:22;3.95;;;3.28;;
71558;SDS011;59382;43.852;25.952;2023-07-31T08:09:47;4.00;;;3.70;;
71558;SDS011;59382;43.852;25.952;2023-07-31T08:12:13;3.60;;;3.20;;
71558;SDS011;59382;43.852;25.952;2023-07-31T08:14:38;3.72;;;3.40;;
71558;SDS011;59382;43.852;25.952;2023-07-31T08:17:04;5.07;;;3.15;;
71558;SDS011;59382;43.852;25.952;2023-07-31T08:19:30;4.30;;;3.90;;
71558;SDS011;59382;43.852;25.952;2023-07-31T08:21:58;5.00;;;4.47;;
71558;SDS011;59382;43.852;25.952;2023-07-31T08:24:30;9.30;;;6.65;;
71558;SDS011;59382;43.852;25.952;2023-07-31T08:26:55;5.10;;;4.40;;
71558;SDS011;59382;43.852;25.952;2023-07-31T08:29:25;5.00;;;3.83;;
71558;SDS011;59382;43.852;25.952;2023-07-31T08:31:53;3.97;;;3.65;;
71558;SDS011;59382;43.852;25.952;2023-07-31T08:34:18;3.88;;;3.58;;
71558;SDS011;59382;43.852;25.952;2023-07-31T08:36:44;3.38;;;3.17;;
71558;SDS011;59382;43.852;25.952;2023-07-31T08:39:09;4.57;;;4.18;;
71558;SDS011;59382;43.852;25.952;2023-07-31T08:41:38;4.20;;;3.83;;
71558;SDS011;59382;43.852;25.952;2023-07-31T08:44:04;3.88;;;3.20;;
71558;SDS011;59382;43.852;25.952;2023-07-31T08:46:32;5.63;;;3.78;;
71558;SDS011;59382;43.852;25.952;2023-07-31T08:49:02;3.60;;;3.30;;
71558;SDS011;59382;43.852;25.952;2023-07-31T08:51:30;4.40;;;4.00;;
71558;SDS011;59382;43.852;25.952;2023-07-31T08:53:55;9.00;;;5.90;;
71558;SDS011;59382;43.852;25.952;2023-07-31T08:56:22;4.57;;;3.58;;
71558;SDS011;59382;43.852;25.952;2023-07-31T08:58:48;4.22;;;3.40;;
71558;SDS011;59382;43.852;25.952;2023-07-31T09:01:15;6.03;;;3.33;;
71558;SDS011;59382;43.852;25.952;2023-07-31T09:03:42;5.32;;;3.88;;
71558;SDS011;59382;43.852;25.952;2023-07-31T09:06:09;6.63;;;3.90;;
71558;SDS011;59382;43.852;25.952;2023-07-31T09:08:38;6.30;;;3.72;;
71558;SDS011;59382;43.852;25.952;2023-07-31T09:11:07;5.22;;;3.10;;
71558;SDS011;59382;43.852;25.952;2023-07-31T09:13:32;4.38;;;3.30;;
71558;SDS011;59382;43.852;25.952;2023-07-31T09:15:58;8.68;;;3.45;;
71558;SDS011;59382;43.852;25.952;2023-07-31T09:18:24;4.28;;;3.05;;
71558;SDS011;59382;43.852;25.952;2023-07-31T09:21:03;13.55;;;3.88;;
71558;SDS011;59382;43.852;25.952;2023-07-31T09:26:08;8.75;;;4.68;;
71558;SDS011;59382;43.852;25.952;2023-07-31T09:28:33;4.55;;;3.58;;
71558;SDS011;59382;43.852;25.952;2023-07-31T09:30:59;4.35;;;3.60;;
71558;SDS011;59382;43.852;25.952;2023-07-31T09:33:25;3.15;;;2.95;;
71558;SDS011;59382;43.852;25.952;2023-07-31T09:35:50;5.00;;;3.95;;
71558;SDS011;59382;43.852;25.952;2023-07-31T09:38:16;7.68;;;4.00;;
71558;SDS011;59382;43.852;25.952;2023-07-31T09:40:43;6.30;;;4.18;;
71558;SDS011;59382;43.852;25.952;2023-07-31T09:43:11;8.57;;;4.57;;
71558;SDS011;59382;43.852;25.952;2023-07-31T09:45:44;7.53;;;4.50;;
71558;SDS011;59382;43.852;25.952;2023-07-31T09:48:14;5.88;;;4.50;;
71558;SDS011;59382;43.852;25.952;2023-07-31T09:50:42;12.82;;;4.65;;
71558;SDS011;59382;43.852;25.952;2023-07-31T09:53:09;5.20;;;3.85;;
71558;SDS011;59382;43.852;25.952;2023-07-31T09:55:36;4.72;;;3.63;;
71558;SDS011;59382;43.852;25.952;2023-07-31T09:58:05;5.93;;;3.63;;
71558;SDS011;59382;43.852;25.952;2023-07-31T10:00:33;7.03;;;4.03;;
71558;SDS011;59382;43.852;25.952;2023-07-31T10:02:59;6.95;;;4.57;;
71558;SDS011;59382;43.852;25.952;2023-07-31T10:05:48;5.43;;;4.25;;
71558;SDS011;59382;43.852;25.952;2023-07-31T10:08:15;4.07;;;3.53;;
71558;SDS011;59382;43.852;25.952;2023-07-31T10:10:46;5.05;;;4.47;;
71558;SDS011;59382;43.852;25.952;2023-07-31T10:13:11;6.00;;;5.10;;
71558;SDS011;59382;43.852;25.952;2023-07-31T10:15:38;8.15;;;4.97;;
71558;SDS011;59382;43.852;25.952;2023-07-31T10:18:06;7.53;;;4.88;;
71558;SDS011;59382;43.852;25.952;2023-07-31T10:20:32;9.65;;;4.63;;
71558;SDS011;59382;43.852;25.952;2023-07-31T10:22:59;12.00;;;6.10;;
71558;SDS011;59382;43.852;25.952;2023-07-31T10:25:28;14.63;;;6.00;;
71558;SDS011;59382;43.852;25.952;2023-07-31T10:27:57;7.97;;;5.50;;
71558;SDS011;59382;43.852;25.952;2023-07-31T10:30:26;10.95;;;5.78;;
71558;SDS011;59382;43.852;25.952;2023-07-31T10:32:54;10.07;;;5.13;;
71558;SDS011;59382;43.852;25.952;2023-07-31T10:35:21;5.55;;;4.50;;
71558;SDS011;59382;43.852;25.952;2023-07-31T10:37:49;6.32;;;4.90;;
71558;SDS011;59382;43.852;25.952;2023-07-31T10:40:19;6.07;;;5.00;;
71558;SDS011;59382;43.852;25.952;2023-07-31T10:42:49;6.18;;;5.30;;
71558;SDS011;59382;43.852;25.952;2023-07-31T10:45:31;6.18;;;5.00;;
71558;SDS011;59382;43.852;25.952;2023-07-31T10:48:05;8.07;;;4.72;;
71558;SDS011;59382;43.852;25.952;2023-07-31T10:50:36;7.05;;;4.38;;
71558;SDS011;59382;43.852;25.952;2023-07-31T10:53:04;6.63;;;4.72;;
71558;SDS011;59382;43.852;25.952;2023-07-31T10:55:41;5.25;;;4.07;;
71558;SDS011;59382;43.852;25.952;2023-07-31T10:58:12;10.15;;;4.72;;
71558;SDS011;59382;43.852;25.952;2023-07-31T11:00:39;6.32;;;5.20;;
71558;SDS011;59382;43.852;25.952;2023-07-31T11:03:05;4.78;;;4.38;;
71558;SDS011;59382;43.852;25.952;2023-07-31T11:08:14;5.28;;;4.78;;
71558;SDS011;59382;43.852;25.952;2023-07-31T11:10:42;6.57;;;4.30;;
71558;SDS011;59382;43.852;25.952;2023-07-31T11:13:09;4.60;;;4.20;;
71558;SDS011;59382;43.852;25.952;2023-07-31T11:15:35;6.88;;;4.43;;
71558;SDS011;59382;43.852;25.952;2023-07-31T11:18:01;5.95;;;4.82;;
71558;SDS011;59382;43.852;25.952;2023-07-31T11:20:31;4.45;;;4.05;;
71558;SDS011;59382;43.852;25.952;2023-07-31T11:23:02;4.75;;;4.32;;
71558;SDS011;59382;43.852;25.952;2023-07-31T11:25:29;5.78;;;4.70;;
71558;SDS011;59382;43.852;25.952;2023-07-31T11:27:56;5.82;;;5.22;;
71558;SDS011;59382;43.852;25.952;2023-07-31T11:30:23;12.15;;;4.35;;
71558;SDS011;59382;43.852;25.952;2023-07-31T11:32:48;6.40;;;5.80;;
71558;SDS011;59382;43.852;25.952;2023-07-31T11:35:15;4.07;;;3.50;;
71558;SDS011;59382;43.852;25.952;2023-07-31T11:37:41;5.15;;;4.53;;
71558;SDS011;59382;43.852;25.952;2023-07-31T11:40:07;4.60;;;4.22;;
71558;SDS011;59382;43.852;25.952;2023-07-31T11:42:37;5.50;;;4.35;;
71558;SDS011;59382;43.852;25.952;2023-07-31T11:45:06;4.97;;;4.45;;
71558;SDS011;59382;43.852;25.952;2023-07-31T11:47:33;5.22;;;4.70;;
71558;SDS011;59382;43.852;25.952;2023-07-31T11:50:05;7.30;;;4.10;;
71558;SDS011;59382;43.852;25.952;2023-07-31T11:52:34;4.47;;;4.05;;
71558;SDS011;59382;43.852;25.952;2023-07-31T11:55:04;4.75;;;4.15;;
71558;SDS011;59382;43.852;25.952;2023-07-31T11:57:32;6.60;;;4.43;;
71558;SDS011;59382;43.852;25.952;2023-07-31T11:59:58;4.47;;;4.07;;
71558;SDS011;59382;43.852;25.952;2023-07-31T12:02:24;5.80;;;4.50;;
71558;SDS011;59382;43.852;25.952;2023-07-31T12:04:50;6.20;;;4.35;;
71558;SDS011;59382;43.852;25.952;2023-07-31T12:07:16;7.05;;;4.32;;
71558;SDS011;59382;43.852;25.952;2023-07-31T12:09:54;5.85;;;4.60;;
71558;SDS011;59382;43.852;25.952;2023-07-31T12:12:20;5.05;;;4.55;;
71558;SDS011;59382;43.852;25.952;2023-07-31T12:14:47;7.93;;;4.88;;
71558;SDS011;59382;43.852;25.952;2023-07-31T12:17:13;6.15;;;5.60;;
71558;SDS011;59382;43.852;25.952;2023-07-31T12:19:39;5.63;;;4.45;;
71558;SDS011;59382;43.852;25.952;2023-07-31T12:22:14;4.72;;;4.38;;
71558;SDS011;59382;43.852;25.952;2023-07-31T12:24:42;4.85;;;4.45;;
71558;SDS011;59382;43.852;25.952;2023-07-31T12:27:11;4.20;;;3.30;;
71558;SDS011;59382;43.852;25.952;2023-07-31T12:29:38;5.15;;;4.75;;
71558;SDS011;59382;43.852;25.952;2023-07-31T12:32:05;7.03;;;3.70;;
71558;SDS011;59382;43.852;25.952;2023-07-31T12:34:44;4.38;;;3.45;;
71558;SDS011;59382;43.852;25.952;2023-07-31T12:37:09;4.63;;;4.22;;
71558;SDS011;59382;43.852;25.952;2023-07-31T12:39:35;4.25;;;3.88;;
71558;SDS011;59382;43.852;25.952;2023-07-31T12:42:01;5.32;;;3.58;;
71558;SDS011;59382;43.852;25.952;2023-07-31T12:44:26;4.22;;;3.90;;
71558;SDS011;59382;43.852;25.952;2023-07-31T12:46:52;6.32;;;4.85;;
71558;SDS011;59382;43.852;25.952;2023-07-31T12:50:03;4.70;;;4.22;;
71558;SDS011;59382;43.852;25.952;2023-07-31T12:52:12;5.07;;;3.70;;
71558;SDS011;59382;43.852;25.952;2023-07-31T12:54:37;3.75;;;3.08;;
71558;SDS011;59382;43.852;25.952;2023-07-31T12:57:06;4.75;;;3.72;;
71558;SDS011;59382;43.852;25.952;2023-07-31T12:59:31;3.33;;;3.03;;
71558;SDS011;59382;43.852;25.952;2023-07-31T13:01:57;3.60;;;3.05;;
71558;SDS011;59382;43.852;25.952;2023-07-31T13:04:22;3.30;;;3.00;;
71558;SDS011;59382;43.852;25.952;2023-07-31T13:06:48;6.10;;;3.20;;
71558;SDS011;59382;43.852;25.952;2023-07-31T13:09:13;3.00;;;2.70;;
71558;SDS011;59382;43.852;25.952;2023-07-31T13:11:42;3.25;;;3.03;;
71558;SDS011;59382;43.852;25.952;2023-07-31T13:14:08;4.32;;;2.60;;
71558;SDS011;59382;43.852;25.952;2023-07-31T13:16:33;4.55;;;3.30;;
71558;SDS011;59382;43.852;25.952;2023-07-31T13:18:59;6.30;;;3.05;;
71558;SDS011;59382;43.852;25.952;2023-07-31T13:21:24;9.07;;;3.90;;
71558;SDS011;59382;43.852;25.952;2023-07-31T13:23:50;6.35;;;3.22;;
71558;SDS011;59382;43.852;25.952;2023-07-31T13:26:15;4.10;;;2.72;;
71558;SDS011;59382;43.852;25.952;2023-07-31T13:28:41;4.70;;;2.92;;
71558;SDS011;59382;43.852;25.952;2023-07-31T13:31:10;4.40;;;2.70;;
71558;SDS011;59382;43.852;25.952;2023-07-31T13:33:36;3.60;;;3.30;;
71558;SDS011;59382;43.852;25.952;2023-07-31T13:36:02;3.47;;;2.80;;
71558;SDS011;59382;43.852;25.952;2023-07-31T13:38:28;5.43;;;3.00;;
71558;SDS011;59382;43.852;25.952;2023-07-31T13:40:53;3.38;;;3.08;;
71558;SDS011;59382;43.852;25.952;2023-07-31T13:43:19;5.55;;;3.33;;
71558;SDS011;59382;43.852;25.952;2023-07-31T13:45:44;12.52;;;3.10;;
71558;SDS011;59382;43.852;25.952;2023-07-31T13:48:10;9.48;;;4.28;;
71558;SDS011;59382;43.852;25.952;2023-07-31T13:50:35;9.00;;;3.42;;
71558;SDS011;59382;43.852;25.952;2023-07-31T13:53:00;5.10;;;3.10;;
71558;SDS011;59382;43.852;25.952;2023-07-31T13:55:26;8.63;;;3.60;;
71558;SDS011;59382;43.852;25.952;2023-07-31T13:57:51;8.88;;;3.92;;
71558;SDS011;59382;43.852;25.952;2023-07-31T14:00:18;7.15;;;4.20;;
71558;SDS011;59382;43.852;25.952;2023-07-31T14:02:44;5.28;;;3.08;;
71558;SDS011;59382;43.852;25.952;2023-07-31T14:05:09;6.05;;;3.90;;
71558;SDS011;59382;43.852;25.952;2023-07-31T14:07:35;5.63;;;3.10;;
71558;SDS011;59382;43.852;25.952;2023-07-31T14:10:01;5.63;;;3.60;;
71558;SDS011;59382;43.852;25.952;2023-07-31T14:12:28;3.55;;;3.22;;
71558;SDS011;59382;43.852;25.952;2023-07-31T14:14:54;6.10;;;3.67;;
71558;SDS011;59382;43.852;25.952;2023-07-31T14:17:23;5.95;;;3.35;;
71558;SDS011;59382;43.852;25.952;2023-07-31T14:19:48;6.28;;;4.05;;
71558;SDS011;59382;43.852;25.952;2023-07-31T14:22:13;4.22;;;3.30;;
71558;SDS011;59382;43.852;25.952;2023-07-31T14:24:39;3.88;;;3.38;;
71558;SDS011;59382;43.852;25.952;2023-07-31T14:27:05;4.28;;;3.10;;
71558;SDS011;59382;43.852;25.952;2023-07-31T14:29:30;3.75;;;3.22;;
71558;SDS011;59382;43.852;25.952;2023-07-31T14:31:56;4.47;;;3.60;;
71558;SDS011;59382;43.852;25.952;2023-07-31T14:34:21;5.07;;;3.78;;
71558;SDS011;59382;43.852;25.952;2023-07-31T14:36:47;6.93;;;3.72;;
71558;SDS011;59382;43.852;25.952;2023-07-31T14:39:13;5.03;;;3.53;;
71558;SDS011;59382;43.852;25.952;2023-07-31T14:41:38;3.60;;;3.30;;
71558;SDS011;59382;43.852;25.952;2023-07-31T14:44:04;3.55;;;3.13;;
71558;SDS011;59382;43.852;25.952;2023-07-31T14:46:30;4.53;;;3.42;;